»·PEaware :: BADGR13 KEND-KEND

BADGR13 :: KEND-KEND

FLIGHT INFORMATION

Flight Status: Arrived
Operator: Unknown
More flights by this operator :: More flights under this callsign
Pilot: Abraham G. (22221)
Aircraft: BEECH AIRCRAFT T-6A TEXAN
(TEX2)
More flights by this aircraft type
Origin: KEND Vance AFB
United States
Destination: KEND Vance AFB
United States
More flights between these airports :: More routes between these airports
Route: AVK END9
File this flight plan on PilotEdge
Remarks:
Altitude:
(Current/Filed)
null
Speed:
(Current/Filed)
0kts
Departed: 05-Apr-21 10:58 AM
Arrived: 05-Apr-21 11:37 AM
Distance/Time
Traveled:
1nm/0:39
Distance/Time
To Go:
Arrived

Flight Plot

Page will automatically refresh every two minutes.

Flight plan parsing failed; only flown route is shown


Map Options




Map Legend


Flown Route
Filed Route
Departure Airport
Arrival Airport
Navaid (VOR, NDB)
Fix

Horizontal Profiles

Position Reports

Time Latitude Longitude Heading Altitude Ground
Speed
05-Apr-21 10:44 36.333580 -97.910081 270 1291ft 0kts
05-Apr-21 10:45 36.333580 -97.910081 270 1291ft 0kts
05-Apr-21 10:46 36.333580 -97.910081 270 1291ft 0kts
05-Apr-21 10:47 36.333580 -97.910081 270 1291ft 0kts
05-Apr-21 10:48 36.333580 -97.910081 270 1291ft 0kts
05-Apr-21 10:49 36.333580 -97.910081 270 1291ft 0kts
05-Apr-21 10:50 36.333580 -97.910081 270 1291ft 0kts
05-Apr-21 10:51 36.333580 -97.910081 270 1291ft 0kts
05-Apr-21 10:52 36.333580 -97.910081 270 1291ft 0kts
05-Apr-21 10:53 36.333580 -97.910081 270 1291ft 0kts
05-Apr-21 10:54 36.333580 -97.910081 270 1291ft 0kts
05-Apr-21 10:55 36.333580 -97.910081 270 1291ft 0kts
05-Apr-21 10:56 36.333795 -97.911065 357 1291ft 19kts
05-Apr-21 10:57 36.369343 -97.905092 8 2927ft 164kts
05-Apr-21 10:58 36.419888 -97.889346 7 5028ft 230kts
05-Apr-21 10:59 36.486688 -97.898347 337 4959ft 251kts
05-Apr-21 11:00 36.544922 -97.898772 359 6014ft 253kts
05-Apr-21 11:01 36.621687 -97.912956 298 5913ft 247kts
05-Apr-21 11:02 36.626082 -97.995512 268 6056ft 239kts
05-Apr-21 11:03 36.639658 -98.077213 287 6050ft 243kts
05-Apr-21 11:04 36.667355 -98.153618 298 4706ft 248kts
05-Apr-21 11:05 36.691883 -98.225439 278 4216ft 204kts
05-Apr-21 11:06 36.708202 -98.304391 282 4471ft 256kts
05-Apr-21 11:07 36.722628 -98.390444 280 4452ft 253kts
05-Apr-21 11:08 36.738553 -98.476310 283 4486ft 252kts
05-Apr-21 11:09 36.757226 -98.559530 284 3670ft 244kts
05-Apr-21 11:10 36.772108 -98.639591 278 3062ft 221kts
05-Apr-21 11:11 36.792138 -98.661098 118 3004ft 223kts
05-Apr-21 11:12 36.748913 -98.660522 267 2553ft 132kts
05-Apr-21 11:13 36.775617 -98.670289 356 1575ft 124kts
05-Apr-21 11:15 36.773545 -98.671834 125 4305ft 189kts
05-Apr-21 11:16 36.743131 -98.607992 122 5510ft 263kts
05-Apr-21 11:17 36.706002 -98.529069 124 5492ft 264kts
05-Apr-21 11:18 36.667544 -98.449639 122 5536ft 277kts
05-Apr-21 11:19 36.627017 -98.368948 125 5569ft 268kts
05-Apr-21 11:20 36.620679 -98.281831 73 6223ft 266kts
05-Apr-21 11:21 36.645422 -98.194195 67 6523ft 265kts
05-Apr-21 11:22 36.661021 -98.103164 85 6568ft 274kts
05-Apr-21 11:23 36.667587 -98.010560 90 6651ft 272kts
05-Apr-21 11:24 36.666044 -97.913401 92 6623ft 273kts
05-Apr-21 11:25 36.645877 -97.827538 145 6477ft 266kts
05-Apr-21 11:26 36.577147 -97.800702 177 6080ft 253kts
05-Apr-21 11:27 36.507192 -97.793232 179 6032ft 253kts
05-Apr-21 11:28 36.436700 -97.789274 183 6012ft 252kts
05-Apr-21 11:29 36.366768 -97.788641 184 6010ft 247kts
05-Apr-21 11:30 36.300979 -97.798670 187 5041ft 232kts
05-Apr-21 11:31 36.237423 -97.819850 211 3829ft 251kts
05-Apr-21 11:32 36.202811 -97.881150 272 2379ft 205kts
05-Apr-21 11:33 36.246415 -97.907498 357 2368ft 206kts
05-Apr-21 11:34 36.304362 -97.910662 356 2365ft 209kts
05-Apr-21 11:35 36.341746 -97.893942 172 2275ft 151kts
05-Apr-21 11:36 36.324638 -97.910004 340 1512ft 105kts
05-Apr-21 11:37 36.344932 -97.910953 359 1281ft 39kts
05-Apr-21 11:38 36.346765 -97.910013 87 1279ft 0kts

Navigation Log

Ident Type
Flight plan parsing failed, navigation log unavailable